Nellis Air Force Base
KLSV : now visible

Airfield :











YOU CAN JOIN US ON...

 
LOGIN :

Register | Disclaimer

   EN    FR    IT 

 









Legend :    VFR   Marginal VFR   IFR   Intensive IFR   Very Intensive IFR
Visi :
Ceiling :
>= 8 km
>= 3000ft
5 to 8 km
1000 to 3000 ft
1500m to 5 km
500 to 1000 ft
800 to 1500m
200 to 500 ft
< 800m
< 200 ft
Symbols :   Thunderstorms  Fog  Heavy snow  Heavy precipitations  Wind > 20 kt






- Airport Elevation : 1870 ft


KLSV - Nellis Air Force Base

CURRENT METAR :
  • 101158Z 27002KT 10SM BKN130 BKN150 12/03 A3002 RMK AO2A SLP156 WND DATA ESTMD T01190027 10128 20126 57010 $

EXPIRED METARs :
  • 101058Z 29003KT 10SM FEW080 SCT120 BKN140 12/03 A3004 RMK AO2A SLP167 WND DATA ESTMD T01190031 $
  • 100958Z 00000KT 10SM FEW075 BKN100 12/03 A3004 RMK AO2A SLP168 WND DATA ESTMD T01190025 $

TAF TAF KLSV
Valid from the 10 at 07:00 until the 11 at 13:00 UTC


100700Z 1007/1113 32009KT 9999 SCT080 BKN140 QNH3007INS
BECMG 1019/1020 17010G18KT 9999 BKN060 BKN210 QNH3003INS
BECMG 1102/1103 29006KT 9999 FEW110 SCT180 QNH2999INS TX17/1023Z TN13/1013Z



MET'MAP, your aeronautical weather chart ! - Copyright ORBIFLY December 2007 - Disclaimer

ORBIFLY MET'MAP TEAM :

Programming & Development : Alexandra Zaïnal
Concept & original design : Baudouin d'Aumeries
Assistance for programming : Marc-Olivier Méhu
Technical & hardware support : Manuel Goepfert

Contact : metmap@orbifly.com




SOURCES & CREDITS :

   NOAA       Earth
Advisory